This is the latest recevied weather packets stored in our database for station/object K7KAZ. If no packets are shown the sender has not sent any weather packets the latest 1 day(s).
| Time | Temp. | Humidity | Pressure | Rain* | Wind** | Luminosity | Snow |
|---|---|---|---|---|---|---|---|
| 1778085897 | 21.67° C | 34% | 1019 hPa | 0 mm | - | 673 W/m² | - |
| 1778085595 | 21.67° C | 33% | 1018.8 hPa | 0 mm | - | 678 W/m² | - |
| 1778081743 | 20° C | 37% | 1018.8 hPa | 0 mm | - | 467 W/m² | - |
| 1778081137 | 20° C | 37% | 1018.8 hPa | 0 mm | - | 306 W/m² | - |
| 1778080532 | 19.44° C | 38% | 1018.7 hPa | 0 mm | - | 303 W/m² | - |
| 1778080224 | 18.89° C | 38% | 1018.9 hPa | 0 mm | - | 321 W/m² | - |
| 1778079920 | 19.44° C | 38% | 1018.8 hPa | 0 mm | - | 280 W/m² | - |
| 1778079314 | 18.89° C | 39% | 1018.8 hPa | 0 mm | - | 291 W/m² | - |
| 1778078708 | 17.78° C | 40% | 1018.7 hPa | 0 mm | - | 250 W/m² | - |
| 1778076894 | 18.33° C | 41% | 1018.6 hPa | 0 mm | - | 154 W/m² | - |
| 1778075683 | 18.89° C | 41% | 1018.3 hPa | 0 mm | - | 103 W/m² | - |
| 1778074166 | 16.67° C | 46% | 1017.9 hPa | 0 mm | - | 43 W/m² | - |
| 1778073863 | 15.56° C | 48% | 1017.7 hPa | 0 mm | - | 38 W/m² | - |
| 1778073257 | 15° C | 48% | 1017.7 hPa | 0 mm | - | 28 W/m² | - |
| 1778071139 | 13.89° C | 52% | 1017.3 hPa | 0 mm | - | 1 W/m² | - |
| 1778070837 | 13.89° C | 52% | 1017.1 hPa | 0 mm | - | 0 W/m² | - |
| 1778069626 | 15° C | 48% | 1017 hPa | 0 mm | - | 0 W/m² | - |
| 1778069323 | 14.44° C | 49% | 1017.1 hPa | 0 mm | - | 0 W/m² | - |
| 1778068416 | 14.44° C | 49% | 1017.1 hPa | 0 mm | - | 0 W/m² | - |
| 1778067510 | 13.89° C | 50% | 1016.7 hPa | 0 mm | - | 0 W/m² | - |
| 1778066298 | 14.44° C | 50% | 1016.7 hPa | 0 mm | - | 0 W/m² | - |
| 1778065996 | 14.44° C | 49% | 1016.7 hPa | 0 mm | - | 0 W/m² | - |
| 1778065693 | 14.44° C | 49% | 1016.7 hPa | 0 mm | - | 0 W/m² | - |
| 1778065390 | 15° C | 48% | 1016.8 hPa | 0 mm | - | 0 W/m² | - |
| 1778064481 | 15° C | 48% | 1016.5 hPa | 0 mm | - | 0 W/m² | - |
* Rain latest hour (hover to see other rain measurements)
** Current wind speed in m/s (hover to see current wind gust speed)